sensor_id;sensor_type;location;lat;lon;timestamp;P1;durP1;ratioP1;P2;durP2;ratioP2
23290;SDS011;11814;44.686;10.842;2024-01-15T00:02:24;151.88;;;77.80;;
23290;SDS011;11814;44.686;10.842;2024-01-15T00:04:49;199.82;;;80.82;;
23290;SDS011;11814;44.686;10.842;2024-01-15T00:07:15;159.73;;;80.38;;
23290;SDS011;11814;44.686;10.842;2024-01-15T00:09:41;173.63;;;83.90;;
23290;SDS011;11814;44.686;10.842;2024-01-15T00:12:06;154.02;;;77.05;;
23290;SDS011;11814;44.686;10.842;2024-01-15T00:14:32;163.23;;;82.00;;
23290;SDS011;11814;44.686;10.842;2024-01-15T00:16:57;157.52;;;81.75;;
23290;SDS011;11814;44.686;10.842;2024-01-15T00:19:23;176.90;;;85.93;;
23290;SDS011;11814;44.686;10.842;2024-01-15T00:21:49;150.35;;;82.78;;
23290;SDS011;11814;44.686;10.842;2024-01-15T00:24:15;150.13;;;78.78;;
23290;SDS011;11814;44.686;10.842;2024-01-15T00:26:41;143.55;;;76.80;;
23290;SDS011;11814;44.686;10.842;2024-01-15T00:31:57;150.93;;;79.45;;
23290;SDS011;11814;44.686;10.842;2024-01-15T00:34:22;174.35;;;88.03;;
23290;SDS011;11814;44.686;10.842;2024-01-15T00:36:48;159.68;;;82.32;;
23290;SDS011;11814;44.686;10.842;2024-01-15T00:39:14;146.75;;;79.60;;
23290;SDS011;11814;44.686;10.842;2024-01-15T00:41:40;143.48;;;80.10;;
23290;SDS011;11814;44.686;10.842;2024-01-15T00:44:08;143.43;;;77.30;;
23290;SDS011;11814;44.686;10.842;2024-01-15T00:46:41;142.20;;;76.75;;
23290;SDS011;11814;44.686;10.842;2024-01-15T00:49:13;150.65;;;78.95;;
23290;SDS011;11814;44.686;10.842;2024-01-15T00:51:39;150.77;;;81.10;;
23290;SDS011;11814;44.686;10.842;2024-01-15T00:54:05;168.15;;;84.80;;
23290;SDS011;11814;44.686;10.842;2024-01-15T00:56:31;158.27;;;81.78;;
23290;SDS011;11814;44.686;10.842;2024-01-15T00:58:57;147.43;;;79.85;;
23290;SDS011;11814;44.686;10.842;2024-01-15T01:01:22;161.93;;;82.80;;
23290;SDS011;11814;44.686;10.842;2024-01-15T01:03:48;160.60;;;83.45;;
23290;SDS011;11814;44.686;10.842;2024-01-15T01:06:13;155.07;;;82.10;;
23290;SDS011;11814;44.686;10.842;2024-01-15T01:08:39;140.50;;;76.60;;
23290;SDS011;11814;44.686;10.842;2024-01-15T01:11:05;148.93;;;78.97;;
23290;SDS011;11814;44.686;10.842;2024-01-15T01:13:32;135.25;;;77.50;;
23290;SDS011;11814;44.686;10.842;2024-01-15T01:15:57;136.18;;;76.50;;
23290;SDS011;11814;44.686;10.842;2024-01-15T01:18:23;143.40;;;76.88;;
23290;SDS011;11814;44.686;10.842;2024-01-15T01:20:52;136.40;;;76.60;;
23290;SDS011;11814;44.686;10.842;2024-01-15T01:23:17;137.55;;;76.43;;
23290;SDS011;11814;44.686;10.842;2024-01-15T01:25:43;141.88;;;78.70;;
23290;SDS011;11814;44.686;10.842;2024-01-15T01:28:08;138.30;;;76.38;;
23290;SDS011;11814;44.686;10.842;2024-01-15T01:30:37;145.65;;;79.18;;
23290;SDS011;11814;44.686;10.842;2024-01-15T01:33:03;166.88;;;85.30;;
23290;SDS011;11814;44.686;10.842;2024-01-15T01:35:28;148.60;;;82.60;;
23290;SDS011;11814;44.686;10.842;2024-01-15T01:37:54;180.68;;;86.13;;
23290;SDS011;11814;44.686;10.842;2024-01-15T01:40:19;164.52;;;83.35;;
23290;SDS011;11814;44.686;10.842;2024-01-15T01:42:45;173.93;;;87.47;;
23290;SDS011;11814;44.686;10.842;2024-01-15T01:45:11;186.73;;;90.20;;
23290;SDS011;11814;44.686;10.842;2024-01-15T01:47:37;179.73;;;90.38;;
23290;SDS011;11814;44.686;10.842;2024-01-15T01:50:03;164.07;;;85.07;;
23290;SDS011;11814;44.686;10.842;2024-01-15T01:52:30;153.75;;;80.93;;
23290;SDS011;11814;44.686;10.842;2024-01-15T01:54:56;146.90;;;80.72;;
23290;SDS011;11814;44.686;10.842;2024-01-15T01:57:23;139.32;;;78.32;;
23290;SDS011;11814;44.686;10.842;2024-01-15T01:59:49;136.82;;;76.25;;
23290;SDS011;11814;44.686;10.842;2024-01-15T02:02:15;142.85;;;76.28;;
23290;SDS011;11814;44.686;10.842;2024-01-15T02:04:41;143.02;;;78.80;;
23290;SDS011;11814;44.686;10.842;2024-01-15T02:07:07;136.65;;;76.47;;
23290;SDS011;11814;44.686;10.842;2024-01-15T02:09:35;141.77;;;76.97;;
23290;SDS011;11814;44.686;10.842;2024-01-15T02:12:00;146.30;;;79.00;;
23290;SDS011;11814;44.686;10.842;2024-01-15T02:14:26;150.15;;;82.05;;
23290;SDS011;11814;44.686;10.842;2024-01-15T02:16:52;138.02;;;75.47;;
23290;SDS011;11814;44.686;10.842;2024-01-15T02:19:18;138.43;;;76.97;;
23290;SDS011;11814;44.686;10.842;2024-01-15T02:21:43;128.73;;;73.25;;
23290;SDS011;11814;44.686;10.842;2024-01-15T02:24:09;138.00;;;77.45;;
23290;SDS011;11814;44.686;10.842;2024-01-15T02:26:35;139.70;;;78.80;;
23290;SDS011;11814;44.686;10.842;2024-01-15T02:29:03;137.02;;;77.53;;
23290;SDS011;11814;44.686;10.842;2024-01-15T02:31:29;123.78;;;72.75;;
23290;SDS011;11814;44.686;10.842;2024-01-15T02:33:55;105.53;;;66.20;;
23290;SDS011;11814;44.686;10.842;2024-01-15T02:36:20;117.38;;;73.47;;
23290;SDS011;11814;44.686;10.842;2024-01-15T02:38:46;107.47;;;68.93;;
23290;SDS011;11814;44.686;10.842;2024-01-15T02:41:12;106.43;;;66.80;;
23290;SDS011;11814;44.686;10.842;2024-01-15T02:43:39;110.32;;;67.65;;
23290;SDS011;11814;44.686;10.842;2024-01-15T02:46:05;107.88;;;66.88;;
23290;SDS011;11814;44.686;10.842;2024-01-15T02:48:31;112.57;;;69.85;;
23290;SDS011;11814;44.686;10.842;2024-01-15T02:50:58;117.28;;;69.57;;
23290;SDS011;11814;44.686;10.842;2024-01-15T02:53:24;110.93;;;68.82;;
23290;SDS011;11814;44.686;10.842;2024-01-15T02:55:49;109.97;;;66.57;;
23290;SDS011;11814;44.686;10.842;2024-01-15T02:58:15;114.50;;;67.30;;
23290;SDS011;11814;44.686;10.842;2024-01-15T03:00:40;113.32;;;66.47;;
23290;SDS011;11814;44.686;10.842;2024-01-15T03:03:07;113.22;;;67.82;;
23290;SDS011;11814;44.686;10.842;2024-01-15T03:05:33;116.57;;;70.85;;
23290;SDS011;11814;44.686;10.842;2024-01-15T03:07:58;117.57;;;70.60;;
23290;SDS011;11814;44.686;10.842;2024-01-15T03:10:27;117.88;;;68.20;;
23290;SDS011;11814;44.686;10.842;2024-01-15T03:12:52;117.45;;;72.78;;
23290;SDS011;11814;44.686;10.842;2024-01-15T03:15:18;121.70;;;72.65;;
23290;SDS011;11814;44.686;10.842;2024-01-15T03:17:44;111.80;;;69.97;;
23290;SDS011;11814;44.686;10.842;2024-01-15T03:20:10;111.28;;;67.07;;
23290;SDS011;11814;44.686;10.842;2024-01-15T03:22:36;112.65;;;67.25;;
23290;SDS011;11814;44.686;10.842;2024-01-15T03:25:01;109.30;;;68.95;;
23290;SDS011;11814;44.686;10.842;2024-01-15T03:27:28;118.13;;;71.68;;
23290;SDS011;11814;44.686;10.842;2024-01-15T03:29:54;110.13;;;69.97;;
23290;SDS011;11814;44.686;10.842;2024-01-15T03:32:20;110.57;;;70.40;;
23290;SDS011;11814;44.686;10.842;2024-01-15T03:34:45;109.40;;;70.18;;
23290;SDS011;11814;44.686;10.842;2024-01-15T03:37:14;111.20;;;71.05;;
23290;SDS011;11814;44.686;10.842;2024-01-15T03:39:40;116.45;;;71.43;;
23290;SDS011;11814;44.686;10.842;2024-01-15T03:42:06;111.43;;;69.85;;
23290;SDS011;11814;44.686;10.842;2024-01-15T03:44:31;120.32;;;72.20;;
23290;SDS011;11814;44.686;10.842;2024-01-15T03:46:57;114.72;;;69.20;;
23290;SDS011;11814;44.686;10.842;2024-01-15T03:49:23;125.35;;;73.32;;
23290;SDS011;11814;44.686;10.842;2024-01-15T03:51:48;135.35;;;76.85;;
23290;SDS011;11814;44.686;10.842;2024-01-15T03:54:14;124.25;;;75.18;;
23290;SDS011;11814;44.686;10.842;2024-01-15T03:56:40;140.77;;;80.43;;
23290;SDS011;11814;44.686;10.842;2024-01-15T03:59:05;142.65;;;81.43;;
23290;SDS011;11814;44.686;10.842;2024-01-15T04:01:31;128.30;;;76.93;;
23290;SDS011;11814;44.686;10.842;2024-01-15T04:03:56;114.50;;;72.18;;
23290;SDS011;11814;44.686;10.842;2024-01-15T04:06:22;116.95;;;75.38;;
23290;SDS011;11814;44.686;10.842;2024-01-15T04:08:48;113.25;;;74.03;;
23290;SDS011;11814;44.686;10.842;2024-01-15T04:11:13;113.95;;;72.72;;
23290;SDS011;11814;44.686;10.842;2024-01-15T04:13:39;126.85;;;79.45;;
23290;SDS011;11814;44.686;10.842;2024-01-15T04:16:04;128.52;;;79.45;;
23290;SDS011;11814;44.686;10.842;2024-01-15T04:18:30;117.03;;;76.18;;
23290;SDS011;11814;44.686;10.842;2024-01-15T04:20:56;122.95;;;76.70;;
23290;SDS011;11814;44.686;10.842;2024-01-15T04:23:21;127.15;;;76.55;;
23290;SDS011;11814;44.686;10.842;2024-01-15T04:25:47;115.95;;;73.95;;
23290;SDS011;11814;44.686;10.842;2024-01-15T04:28:12;122.97;;;75.55;;
23290;SDS011;11814;44.686;10.842;2024-01-15T04:30:38;132.13;;;80.18;;
23290;SDS011;11814;44.686;10.842;2024-01-15T04:33:04;122.15;;;74.75;;
23290;SDS011;11814;44.686;10.842;2024-01-15T04:35:30;128.25;;;79.20;;
23290;SDS011;11814;44.686;10.842;2024-01-15T04:37:56;121.60;;;74.35;;
23290;SDS011;11814;44.686;10.842;2024-01-15T04:40:21;133.85;;;78.88;;
23290;SDS011;11814;44.686;10.842;2024-01-15T04:42:47;124.05;;;76.65;;
23290;SDS011;11814;44.686;10.842;2024-01-15T04:45:13;117.75;;;73.65;;
23290;SDS011;11814;44.686;10.842;2024-01-15T04:47:39;132.40;;;79.07;;
23290;SDS011;11814;44.686;10.842;2024-01-15T04:50:04;124.65;;;74.93;;
23290;SDS011;11814;44.686;10.842;2024-01-15T04:52:30;114.75;;;71.82;;
23290;SDS011;11814;44.686;10.842;2024-01-15T04:54:56;137.55;;;81.60;;
23290;SDS011;11814;44.686;10.842;2024-01-15T04:57:22;118.32;;;74.60;;
23290;SDS011;11814;44.686;10.842;2024-01-15T04:59:47;123.40;;;76.30;;
23290;SDS011;11814;44.686;10.842;2024-01-15T05:02:13;132.52;;;77.00;;
23290;SDS011;11814;44.686;10.842;2024-01-15T05:04:38;130.50;;;79.55;;
23290;SDS011;11814;44.686;10.842;2024-01-15T05:07:04;120.53;;;76.32;;
23290;SDS011;11814;44.686;10.842;2024-01-15T05:09:30;112.57;;;72.57;;
23290;SDS011;11814;44.686;10.842;2024-01-15T05:11:55;115.25;;;72.97;;
23290;SDS011;11814;44.686;10.842;2024-01-15T05:14:21;122.70;;;75.15;;
23290;SDS011;11814;44.686;10.842;2024-01-15T05:16:47;111.80;;;70.35;;
23290;SDS011;11814;44.686;10.842;2024-01-15T05:19:14;114.30;;;69.97;;
23290;SDS011;11814;44.686;10.842;2024-01-15T05:21:40;116.22;;;72.22;;
23290;SDS011;11814;44.686;10.842;2024-01-15T05:24:09;126.53;;;77.65;;
23290;SDS011;11814;44.686;10.842;2024-01-15T05:26:34;130.77;;;77.82;;
23290;SDS011;11814;44.686;10.842;2024-01-15T05:29:00;133.50;;;76.78;;
23290;SDS011;11814;44.686;10.842;2024-01-15T05:31:25;129.25;;;78.65;;
23290;SDS011;11814;44.686;10.842;2024-01-15T05:33:51;119.85;;;75.90;;
23290;SDS011;11814;44.686;10.842;2024-01-15T05:36:16;125.47;;;76.93;;
23290;SDS011;11814;44.686;10.842;2024-01-15T05:38:42;125.13;;;76.95;;
23290;SDS011;11814;44.686;10.842;2024-01-15T05:41:08;129.73;;;77.38;;
23290;SDS011;11814;44.686;10.842;2024-01-15T05:43:33;126.38;;;76.05;;
23290;SDS011;11814;44.686;10.842;2024-01-15T05:45:59;123.15;;;75.70;;
23290;SDS011;11814;44.686;10.842;2024-01-15T05:48:24;122.00;;;75.53;;
23290;SDS011;11814;44.686;10.842;2024-01-15T05:50:50;125.18;;;75.32;;
23290;SDS011;11814;44.686;10.842;2024-01-15T05:53:16;128.77;;;76.60;;
23290;SDS011;11814;44.686;10.842;2024-01-15T05:55:41;133.70;;;80.68;;
23290;SDS011;11814;44.686;10.842;2024-01-15T05:58:07;129.20;;;76.97;;
23290;SDS011;11814;44.686;10.842;2024-01-15T06:00:33;133.65;;;79.50;;
23290;SDS011;11814;44.686;10.842;2024-01-15T06:03:00;130.73;;;78.13;;
23290;SDS011;11814;44.686;10.842;2024-01-15T06:05:26;136.73;;;81.93;;
23290;SDS011;11814;44.686;10.842;2024-01-15T06:07:52;138.05;;;79.93;;
23290;SDS011;11814;44.686;10.842;2024-01-15T06:10:17;138.77;;;81.82;;
23290;SDS011;11814;44.686;10.842;2024-01-15T06:12:43;139.32;;;82.93;;
23290;SDS011;11814;44.686;10.842;2024-01-15T06:15:09;148.43;;;84.30;;
23290;SDS011;11814;44.686;10.842;2024-01-15T06:17:35;130.63;;;81.13;;
23290;SDS011;11814;44.686;10.842;2024-01-15T06:20:01;140.13;;;81.57;;
23290;SDS011;11814;44.686;10.842;2024-01-15T06:22:27;152.65;;;87.32;;
23290;SDS011;11814;44.686;10.842;2024-01-15T06:24:52;161.75;;;90.75;;
23290;SDS011;11814;44.686;10.842;2024-01-15T06:27:18;163.57;;;89.78;;
23290;SDS011;11814;44.686;10.842;2024-01-15T06:29:47;151.68;;;87.40;;
23290;SDS011;11814;44.686;10.842;2024-01-15T06:32:12;144.95;;;86.43;;
23290;SDS011;11814;44.686;10.842;2024-01-15T06:34:38;149.30;;;84.93;;
23290;SDS011;11814;44.686;10.842;2024-01-15T06:37:04;149.65;;;87.30;;
23290;SDS011;11814;44.686;10.842;2024-01-15T06:39:30;153.35;;;88.82;;
23290;SDS011;11814;44.686;10.842;2024-01-15T06:41:55;161.93;;;92.10;;
23290;SDS011;11814;44.686;10.842;2024-01-15T06:44:21;151.18;;;86.28;;
23290;SDS011;11814;44.686;10.842;2024-01-15T06:46:47;164.68;;;91.50;;
23290;SDS011;11814;44.686;10.842;2024-01-15T06:49:13;155.98;;;89.82;;
23290;SDS011;11814;44.686;10.842;2024-01-15T06:51:38;168.90;;;93.85;;
23290;SDS011;11814;44.686;10.842;2024-01-15T06:54:04;171.60;;;93.45;;
23290;SDS011;11814;44.686;10.842;2024-01-15T06:56:30;159.93;;;90.80;;
23290;SDS011;11814;44.686;10.842;2024-01-15T06:58:56;160.75;;;90.18;;
23290;SDS011;11814;44.686;10.842;2024-01-15T07:01:22;152.30;;;88.07;;
23290;SDS011;11814;44.686;10.842;2024-01-15T07:03:48;163.77;;;90.95;;
23290;SDS011;11814;44.686;10.842;2024-01-15T07:06:13;157.60;;;88.20;;
23290;SDS011;11814;44.686;10.842;2024-01-15T07:08:39;158.68;;;88.80;;
23290;SDS011;11814;44.686;10.842;2024-01-15T07:11:05;159.95;;;89.35;;
23290;SDS011;11814;44.686;10.842;2024-01-15T07:13:31;180.55;;;94.32;;
23290;SDS011;11814;44.686;10.842;2024-01-15T07:15:57;175.27;;;95.13;;
23290;SDS011;11814;44.686;10.842;2024-01-15T07:18:23;170.45;;;93.68;;
23290;SDS011;11814;44.686;10.842;2024-01-15T07:20:49;195.18;;;99.63;;
23290;SDS011;11814;44.686;10.842;2024-01-15T07:23:15;174.35;;;92.38;;
23290;SDS011;11814;44.686;10.842;2024-01-15T07:25:42;164.05;;;93.22;;
23290;SDS011;11814;44.686;10.842;2024-01-15T07:28:07;162.52;;;93.80;;
23290;SDS011;11814;44.686;10.842;2024-01-15T07:30:33;165.07;;;92.47;;
23290;SDS011;11814;44.686;10.842;2024-01-15T07:32:59;162.25;;;88.35;;
23290;SDS011;11814;44.686;10.842;2024-01-15T07:35:24;173.30;;;95.30;;
23290;SDS011;11814;44.686;10.842;2024-01-15T07:37:50;187.98;;;98.90;;
23290;SDS011;11814;44.686;10.842;2024-01-15T07:40:16;193.45;;;100.63;;
23290;SDS011;11814;44.686;10.842;2024-01-15T07:42:41;185.90;;;101.88;;
23290;SDS011;11814;44.686;10.842;2024-01-15T07:45:08;194.10;;;102.20;;
23290;SDS011;11814;44.686;10.842;2024-01-15T07:47:36;201.23;;;102.85;;
23290;SDS011;11814;44.686;10.842;2024-01-15T07:50:02;191.23;;;99.72;;
23290;SDS011;11814;44.686;10.842;2024-01-15T07:52:29;195.23;;;99.07;;
23290;SDS011;11814;44.686;10.842;2024-01-15T07:54:55;194.45;;;101.00;;
23290;SDS011;11814;44.686;10.842;2024-01-15T07:57:21;179.60;;;99.68;;
23290;SDS011;11814;44.686;10.842;2024-01-15T07:59:47;194.35;;;102.60;;
23290;SDS011;11814;44.686;10.842;2024-01-15T08:02:13;182.95;;;99.03;;
23290;SDS011;11814;44.686;10.842;2024-01-15T08:04:39;178.77;;;96.38;;
23290;SDS011;11814;44.686;10.842;2024-01-15T08:07:04;186.27;;;97.68;;
23290;SDS011;11814;44.686;10.842;2024-01-15T08:09:32;180.70;;;99.35;;
23290;SDS011;11814;44.686;10.842;2024-01-15T08:11:57;171.07;;;95.82;;
23290;SDS011;11814;44.686;10.842;2024-01-15T08:14:23;180.13;;;98.50;;
23290;SDS011;11814;44.686;10.842;2024-01-15T08:16:49;177.63;;;96.43;;
23290;SDS011;11814;44.686;10.842;2024-01-15T08:19:14;174.68;;;94.60;;
23290;SDS011;11814;44.686;10.842;2024-01-15T08:21:40;160.13;;;92.53;;
23290;SDS011;11814;44.686;10.842;2024-01-15T08:24:06;174.52;;;96.75;;
23290;SDS011;11814;44.686;10.842;2024-01-15T08:26:31;179.23;;;99.10;;
23290;SDS011;11814;44.686;10.842;2024-01-15T08:28:57;174.98;;;96.35;;
23290;SDS011;11814;44.686;10.842;2024-01-15T08:31:23;176.65;;;97.40;;
23290;SDS011;11814;44.686;10.842;2024-01-15T08:33:49;172.57;;;95.85;;
23290;SDS011;11814;44.686;10.842;2024-01-15T08:36:15;182.65;;;98.53;;
23290;SDS011;11814;44.686;10.842;2024-01-15T08:38:41;173.60;;;95.53;;
23290;SDS011;11814;44.686;10.842;2024-01-15T08:41:07;164.15;;;94.18;;
23290;SDS011;11814;44.686;10.842;2024-01-15T08:43:33;149.80;;;86.20;;
23290;SDS011;11814;44.686;10.842;2024-01-15T08:45:59;144.43;;;85.95;;
23290;SDS011;11814;44.686;10.842;2024-01-15T08:48:25;146.98;;;87.00;;
23290;SDS011;11814;44.686;10.842;2024-01-15T08:50:52;127.00;;;77.82;;
23290;SDS011;11814;44.686;10.842;2024-01-15T08:53:18;132.63;;;80.53;;
23290;SDS011;11814;44.686;10.842;2024-01-15T08:55:44;124.40;;;78.55;;
23290;SDS011;11814;44.686;10.842;2024-01-15T08:58:10;126.78;;;76.38;;
23290;SDS011;11814;44.686;10.842;2024-01-15T09:00:35;109.72;;;71.07;;
23290;SDS011;11814;44.686;10.842;2024-01-15T09:03:01;101.68;;;68.00;;
23290;SDS011;11814;44.686;10.842;2024-01-15T09:05:27;100.65;;;66.22;;
23290;SDS011;11814;44.686;10.842;2024-01-15T09:07:53;95.75;;;66.93;;
23290;SDS011;11814;44.686;10.842;2024-01-15T09:10:19;107.60;;;67.60;;
23290;SDS011;11814;44.686;10.842;2024-01-15T09:12:45;94.18;;;63.35;;
23290;SDS011;11814;44.686;10.842;2024-01-15T09:15:11;89.80;;;61.97;;
23290;SDS011;11814;44.686;10.842;2024-01-15T09:17:37;90.75;;;62.65;;
23290;SDS011;11814;44.686;10.842;2024-01-15T09:20:03;94.25;;;64.18;;
23290;SDS011;11814;44.686;10.842;2024-01-15T09:22:30;95.03;;;63.70;;
23290;SDS011;11814;44.686;10.842;2024-01-15T09:24:59;88.35;;;60.67;;
23290;SDS011;11814;44.686;10.842;2024-01-15T09:27:25;92.05;;;62.03;;
23290;SDS011;11814;44.686;10.842;2024-01-15T09:29:51;89.63;;;62.25;;
23290;SDS011;11814;44.686;10.842;2024-01-15T09:32:17;86.20;;;59.65;;
23290;SDS011;11814;44.686;10.842;2024-01-15T09:34:43;88.35;;;61.35;;
23290;SDS011;11814;44.686;10.842;2024-01-15T09:37:09;84.03;;;58.58;;
23290;SDS011;11814;44.686;10.842;2024-01-15T09:39:35;89.82;;;59.85;;
23290;SDS011;11814;44.686;10.842;2024-01-15T09:42:00;85.15;;;58.60;;
23290;SDS011;11814;44.686;10.842;2024-01-15T09:44:27;79.20;;;58.30;;
23290;SDS011;11814;44.686;10.842;2024-01-15T09:46:54;86.88;;;61.75;;
23290;SDS011;11814;44.686;10.842;2024-01-15T09:49:21;83.10;;;59.33;;
23290;SDS011;11814;44.686;10.842;2024-01-15T09:51:46;81.88;;;59.60;;
23290;SDS011;11814;44.686;10.842;2024-01-15T09:54:12;86.18;;;58.85;;
23290;SDS011;11814;44.686;10.842;2024-01-15T09:56:42;80.93;;;57.22;;
23290;SDS011;11814;44.686;10.842;2024-01-15T09:59:17;83.55;;;59.00;;
23290;SDS011;11814;44.686;10.842;2024-01-15T10:01:44;82.18;;;58.55;;
23290;SDS011;11814;44.686;10.842;2024-01-15T10:04:13;83.68;;;59.70;;
23290;SDS011;11814;44.686;10.842;2024-01-15T10:06:39;82.35;;;59.15;;
23290;SDS011;11814;44.686;10.842;2024-01-15T10:09:13;87.18;;;60.55;;
23290;SDS011;11814;44.686;10.842;2024-01-15T10:11:42;84.20;;;59.50;;
23290;SDS011;11814;44.686;10.842;2024-01-15T10:14:09;81.93;;;58.83;;
23290;SDS011;11814;44.686;10.842;2024-01-15T10:16:37;79.68;;;58.00;;
23290;SDS011;11814;44.686;10.842;2024-01-15T10:19:04;72.85;;;52.90;;
23290;SDS011;11814;44.686;10.842;2024-01-15T10:21:31;74.53;;;54.70;;
23290;SDS011;11814;44.686;10.842;2024-01-15T10:23:59;69.65;;;52.50;;
23290;SDS011;11814;44.686;10.842;2024-01-15T10:26:25;73.60;;;54.78;;
23290;SDS011;11814;44.686;10.842;2024-01-15T10:28:51;71.78;;;54.20;;
23290;SDS011;11814;44.686;10.842;2024-01-15T10:31:19;69.20;;;50.83;;
23290;SDS011;11814;44.686;10.842;2024-01-15T10:33:46;70.68;;;51.75;;
23290;SDS011;11814;44.686;10.842;2024-01-15T10:36:13;68.38;;;52.40;;
23290;SDS011;11814;44.686;10.842;2024-01-15T10:38:41;70.93;;;51.30;;
23290;SDS011;11814;44.686;10.842;2024-01-15T10:41:08;69.53;;;52.58;;
23290;SDS011;11814;44.686;10.842;2024-01-15T10:43:33;63.85;;;50.05;;
23290;SDS011;11814;44.686;10.842;2024-01-15T10:45:59;65.57;;;48.50;;
23290;SDS011;11814;44.686;10.842;2024-01-15T10:48:25;59.72;;;47.40;;
23290;SDS011;11814;44.686;10.842;2024-01-15T10:50:53;56.78;;;46.58;;
23290;SDS011;11814;44.686;10.842;2024-01-15T10:53:19;53.55;;;44.80;;
23290;SDS011;11814;44.686;10.842;2024-01-15T10:55:46;53.92;;;44.88;;
23290;SDS011;11814;44.686;10.842;2024-01-15T10:58:13;51.63;;;41.83;;
23290;SDS011;11814;44.686;10.842;2024-01-15T11:00:40;50.95;;;42.55;;
23290;SDS011;11814;44.686;10.842;2024-01-15T11:03:06;46.78;;;41.22;;
23290;SDS011;11814;44.686;10.842;2024-01-15T11:05:38;51.42;;;43.90;;
23290;SDS011;11814;44.686;10.842;2024-01-15T11:08:08;51.67;;;41.53;;
23290;SDS011;11814;44.686;10.842;2024-01-15T11:10:38;53.53;;;40.83;;
23290;SDS011;11814;44.686;10.842;2024-01-15T11:13:20;47.50;;;41.13;;
23290;SDS011;11814;44.686;10.842;2024-01-15T11:16:03;47.70;;;41.08;;
23290;SDS011;11814;44.686;10.842;2024-01-15T11:18:30;48.28;;;41.83;;
23290;SDS011;11814;44.686;10.842;2024-01-15T11:23:44;46.00;;;40.45;;
23290;SDS011;11814;44.686;10.842;2024-01-15T11:29:10;46.28;;;38.95;;
23290;SDS011;11814;44.686;10.842;2024-01-15T11:31:56;46.20;;;38.92;;
23290;SDS011;11814;44.686;10.842;2024-01-15T11:37:23;42.85;;;37.90;;
23290;SDS011;11814;44.686;10.842;2024-01-15T11:40:02;43.03;;;38.00;;
23290;SDS011;11814;44.686;10.842;2024-01-15T11:42:28;45.35;;;39.72;;
23290;SDS011;11814;44.686;10.842;2024-01-15T11:44:55;44.85;;;39.60;;
23290;SDS011;11814;44.686;10.842;2024-01-15T11:47:32;41.13;;;36.13;;
23290;SDS011;11814;44.686;10.842;2024-01-15T11:50:08;43.17;;;38.58;;
23290;SDS011;11814;44.686;10.842;2024-01-15T11:52:35;45.25;;;38.13;;
23290;SDS011;11814;44.686;10.842;2024-01-15T11:57:54;44.38;;;39.47;;
23290;SDS011;11814;44.686;10.842;2024-01-15T12:00:23;43.50;;;38.58;;
23290;SDS011;11814;44.686;10.842;2024-01-15T12:02:49;46.05;;;37.42;;
23290;SDS011;11814;44.686;10.842;2024-01-15T12:05:18;41.80;;;36.97;;
23290;SDS011;11814;44.686;10.842;2024-01-15T12:07:45;47.10;;;37.90;;
23290;SDS011;11814;44.686;10.842;2024-01-15T12:10:16;42.03;;;36.63;;
23290;SDS011;11814;44.686;10.842;2024-01-15T12:15:25;40.63;;;36.15;;
23290;SDS011;11814;44.686;10.842;2024-01-15T12:17:52;42.13;;;37.00;;
23290;SDS011;11814;44.686;10.842;2024-01-15T12:20:19;44.80;;;38.47;;
23290;SDS011;11814;44.686;10.842;2024-01-15T12:22:45;41.03;;;36.38;;
23290;SDS011;11814;44.686;10.842;2024-01-15T12:25:11;37.72;;;33.72;;
23290;SDS011;11814;44.686;10.842;2024-01-15T12:27:36;38.42;;;34.30;;
23290;SDS011;11814;44.686;10.842;2024-01-15T12:30:02;41.38;;;36.92;;
23290;SDS011;11814;44.686;10.842;2024-01-15T12:32:28;40.75;;;35.67;;
23290;SDS011;11814;44.686;10.842;2024-01-15T12:34:54;44.92;;;36.22;;
23290;SDS011;11814;44.686;10.842;2024-01-15T12:37:20;40.58;;;35.75;;
23290;SDS011;11814;44.686;10.842;2024-01-15T12:39:48;37.72;;;33.65;;
23290;SDS011;11814;44.686;10.842;2024-01-15T12:42:14;39.20;;;34.92;;
23290;SDS011;11814;44.686;10.842;2024-01-15T12:44:41;41.15;;;36.58;;
23290;SDS011;11814;44.686;10.842;2024-01-15T12:47:08;39.85;;;34.78;;
23290;SDS011;11814;44.686;10.842;2024-01-15T12:49:35;39.42;;;34.50;;
23290;SDS011;11814;44.686;10.842;2024-01-15T12:52:08;39.72;;;32.83;;
23290;SDS011;11814;44.686;10.842;2024-01-15T12:54:34;40.80;;;34.63;;
23290;SDS011;11814;44.686;10.842;2024-01-15T12:57:00;41.35;;;36.88;;
23290;SDS011;11814;44.686;10.842;2024-01-15T12:59:25;43.35;;;37.28;;
23290;SDS011;11814;44.686;10.842;2024-01-15T13:01:51;44.03;;;35.75;;
23290;SDS011;11814;44.686;10.842;2024-01-15T13:04:21;45.50;;;37.05;;
23290;SDS011;11814;44.686;10.842;2024-01-15T13:06:47;44.10;;;37.08;;
23290;SDS011;11814;44.686;10.842;2024-01-15T13:09:14;46.35;;;39.67;;
23290;SDS011;11814;44.686;10.842;2024-01-15T13:11:40;43.97;;;36.10;;
23290;SDS011;11814;44.686;10.842;2024-01-15T13:14:05;45.15;;;38.15;;
23290;SDS011;11814;44.686;10.842;2024-01-15T13:16:31;45.50;;;36.55;;
23290;SDS011;11814;44.686;10.842;2024-01-15T13:18:57;45.08;;;35.92;;
23290;SDS011;11814;44.686;10.842;2024-01-15T13:21:23;44.33;;;37.72;;
23290;SDS011;11814;44.686;10.842;2024-01-15T13:23:50;44.58;;;36.60;;
23290;SDS011;11814;44.686;10.842;2024-01-15T13:26:16;46.45;;;39.75;;
23290;SDS011;11814;44.686;10.842;2024-01-15T13:28:43;47.00;;;38.45;;
23290;SDS011;11814;44.686;10.842;2024-01-15T13:31:09;47.33;;;39.58;;
23290;SDS011;11814;44.686;10.842;2024-01-15T13:33:38;46.97;;;39.75;;
23290;SDS011;11814;44.686;10.842;2024-01-15T13:36:04;48.33;;;39.42;;
23290;SDS011;11814;44.686;10.842;2024-01-15T13:38:33;44.42;;;37.15;;
23290;SDS011;11814;44.686;10.842;2024-01-15T13:41:01;45.22;;;36.72;;
23290;SDS011;11814;44.686;10.842;2024-01-15T13:43:27;48.35;;;38.00;;
23290;SDS011;11814;44.686;10.842;2024-01-15T13:45:53;48.67;;;38.53;;
23290;SDS011;11814;44.686;10.842;2024-01-15T13:48:19;50.45;;;38.17;;
23290;SDS011;11814;44.686;10.842;2024-01-15T13:50:45;47.75;;;38.22;;
23290;SDS011;11814;44.686;10.842;2024-01-15T13:53:11;45.28;;;36.33;;
23290;SDS011;11814;44.686;10.842;2024-01-15T13:55:36;44.28;;;36.67;;
23290;SDS011;11814;44.686;10.842;2024-01-15T13:58:02;51.25;;;38.72;;
23290;SDS011;11814;44.686;10.842;2024-01-15T14:00:30;47.88;;;38.80;;
23290;SDS011;11814;44.686;10.842;2024-01-15T14:02:56;46.95;;;38.63;;
23290;SDS011;11814;44.686;10.842;2024-01-15T14:05:22;48.03;;;37.33;;
23290;SDS011;11814;44.686;10.842;2024-01-15T14:07:48;48.28;;;37.92;;
23290;SDS011;11814;44.686;10.842;2024-01-15T14:10:14;49.60;;;38.17;;
23290;SDS011;11814;44.686;10.842;2024-01-15T14:12:39;43.75;;;36.30;;
23290;SDS011;11814;44.686;10.842;2024-01-15T14:15:05;42.90;;;34.40;;